Terminal Aerodrome Forecast
Issued by NWS Boston, MA

Home | Current Version | Previous Version | Text Only | Print | Product List | Glossary On
Versions: 1 2 3 4 5 6 7 8 9 10 11 12 13 14 15 16 17 18 19 20 21
000
FTUS41 KBOX 252321
TAFBDL
TAF
KBDL 252321Z 2600/2706 21006KT P6SM BKN060
     FM260500 24008KT P6SM SCT070
     FM261000 27007KT P6SM FEW250
     FM261600 29013G23KT P6SM BKN050=

USA.gov is the U.S. government's official web portal to all federal, state and local government web resources and services.